sensor_id;sensor_type;location;lat;lon;timestamp;pressure;altitude;pressure_sealevel;temperature;humidity
75740;BME280;64357;51.344;6.550;2023-11-21T00:02:20;100577.34;;;8.24;100.00
75740;BME280;64357;51.344;6.550;2023-11-21T00:04:45;100578.31;;;8.09;100.00
75740;BME280;64357;51.344;6.550;2023-11-21T00:07:16;100587.38;;;8.23;100.00
75740;BME280;64357;51.344;6.550;2023-11-21T00:09:42;100592.19;;;8.28;100.00
75740;BME280;64357;51.344;6.550;2023-11-21T00:12:08;100587.75;;;8.35;100.00
75740;BME280;64357;51.344;6.550;2023-11-21T00:14:39;100592.19;;;8.44;100.00
75740;BME280;64357;51.344;6.550;2023-11-21T00:17:05;100599.81;;;8.44;100.00
75740;BME280;64357;51.344;6.550;2023-11-21T00:19:31;100600.09;;;8.39;100.00
75740;BME280;64357;51.344;6.550;2023-11-21T00:21:57;100598.47;;;8.48;100.00
75740;BME280;64357;51.344;6.550;2023-11-21T00:24:25;100604.16;;;8.45;100.00
75740;BME280;64357;51.344;6.550;2023-11-21T00:26:55;100606.19;;;8.57;100.00
75740;BME280;64357;51.344;6.550;2023-11-21T00:29:20;100597.53;;;8.63;100.00
75740;BME280;64357;51.344;6.550;2023-11-21T00:31:46;100605.31;;;8.65;100.00
75740;BME280;64357;51.344;6.550;2023-11-21T00:34:12;100609.63;;;8.57;100.00
75740;BME280;64357;51.344;6.550;2023-11-21T00:36:40;100603.56;;;8.48;100.00
75740;BME280;64357;51.344;6.550;2023-11-21T00:39:05;100611.69;;;8.52;100.00
75740;BME280;64357;51.344;6.550;2023-11-21T00:41:31;100601.09;;;8.57;100.00
75740;BME280;64357;51.344;6.550;2023-11-21T00:44:00;100606.47;;;8.60;100.00
75740;BME280;64357;51.344;6.550;2023-11-21T00:46:26;100605.47;;;8.66;100.00
75740;BME280;64357;51.344;6.550;2023-11-21T00:48:56;100602.28;;;8.60;100.00
75740;BME280;64357;51.344;6.550;2023-11-21T00:51:22;100613.81;;;8.57;100.00
75740;BME280;64357;51.344;6.550;2023-11-21T00:53:50;100606.09;;;8.72;100.00
75740;BME280;64357;51.344;6.550;2023-11-21T00:56:16;100604.25;;;8.63;100.00
75740;BME280;64357;51.344;6.550;2023-11-21T00:58:41;100604.41;;;8.64;100.00
75740;BME280;64357;51.344;6.550;2023-11-21T01:01:14;100611.53;;;8.51;100.00
75740;BME280;64357;51.344;6.550;2023-11-21T01:03:40;100622.72;;;8.44;100.00
75740;BME280;64357;51.344;6.550;2023-11-21T01:06:07;100621.50;;;8.41;100.00
75740;BME280;64357;51.344;6.550;2023-11-21T01:08:34;100618.47;;;8.36;100.00
75740;BME280;64357;51.344;6.550;2023-11-21T01:10:59;100621.34;;;8.39;100.00
75740;BME280;64357;51.344;6.550;2023-11-21T01:13:25;100623.44;;;8.43;100.00
75740;BME280;64357;51.344;6.550;2023-11-21T01:15:55;100626.66;;;8.34;100.00
75740;BME280;64357;51.344;6.550;2023-11-21T01:18:20;100620.28;;;8.37;100.00
75740;BME280;64357;51.344;6.550;2023-11-21T01:20:46;100633.47;;;8.42;100.00
75740;BME280;64357;51.344;6.550;2023-11-21T01:23:13;100636.66;;;8.32;100.00
75740;BME280;64357;51.344;6.550;2023-11-21T01:25:40;100633.81;;;8.29;100.00
75740;BME280;64357;51.344;6.550;2023-11-21T01:28:06;100634.81;;;8.22;100.00
75740;BME280;64357;51.344;6.550;2023-11-21T01:30:32;100644.47;;;8.34;100.00
75740;BME280;64357;51.344;6.550;2023-11-21T01:32:58;100623.56;;;8.20;100.00
75740;BME280;64357;51.344;6.550;2023-11-21T01:35:24;100637.22;;;8.21;100.00
75740;BME280;64357;51.344;6.550;2023-11-21T01:37:49;100634.66;;;8.21;100.00
75740;BME280;64357;51.344;6.550;2023-11-21T01:40:14;100634.00;;;8.15;100.00
75740;BME280;64357;51.344;6.550;2023-11-21T01:42:41;100630.78;;;8.24;100.00
75740;BME280;64357;51.344;6.550;2023-11-21T01:45:09;100633.66;;;8.27;100.00
75740;BME280;64357;51.344;6.550;2023-11-21T01:47:37;100635.72;;;8.39;100.00
75740;BME280;64357;51.344;6.550;2023-11-21T01:50:03;100645.38;;;8.34;100.00
75740;BME280;64357;51.344;6.550;2023-11-21T01:52:31;100643.72;;;8.35;100.00
75740;BME280;64357;51.344;6.550;2023-11-21T01:55:00;100653.75;;;8.33;100.00
75740;BME280;64357;51.344;6.550;2023-11-21T01:57:26;100653.84;;;8.42;100.00
75740;BME280;64357;51.344;6.550;2023-11-21T01:59:56;100658.19;;;8.43;100.00
75740;BME280;64357;51.344;6.550;2023-11-21T02:02:23;100651.16;;;8.40;100.00
75740;BME280;64357;51.344;6.550;2023-11-21T02:04:49;100658.19;;;8.43;100.00
75740;BME280;64357;51.344;6.550;2023-11-21T02:07:14;100649.09;;;8.45;100.00
75740;BME280;64357;51.344;6.550;2023-11-21T02:09:40;100658.63;;;8.39;100.00
75740;BME280;64357;51.344;6.550;2023-11-21T02:12:08;100655.63;;;8.43;100.00
75740;BME280;64357;51.344;6.550;2023-11-21T02:14:36;100658.28;;;8.36;100.00
75740;BME280;64357;51.344;6.550;2023-11-21T02:17:01;100662.63;;;8.37;100.00
75740;BME280;64357;51.344;6.550;2023-11-21T02:19:34;100664.44;;;8.38;100.00
75740;BME280;64357;51.344;6.550;2023-11-21T02:21:59;100661.19;;;8.39;100.00
75740;BME280;64357;51.344;6.550;2023-11-21T02:24:26;100672.56;;;8.42;100.00
75740;BME280;64357;51.344;6.550;2023-11-21T02:26:57;100676.22;;;8.53;100.00
75740;BME280;64357;51.344;6.550;2023-11-21T02:29:22;100669.59;;;8.46;100.00
75740;BME280;64357;51.344;6.550;2023-11-21T02:31:53;100665.41;;;8.47;100.00
75740;BME280;64357;51.344;6.550;2023-11-21T02:34:20;100673.53;;;8.51;100.00
75740;BME280;64357;51.344;6.550;2023-11-21T02:36:46;100676.56;;;8.56;100.00
75740;BME280;64357;51.344;6.550;2023-11-21T02:39:17;100665.16;;;8.52;100.00
75740;BME280;64357;51.344;6.550;2023-11-21T02:41:43;100664.09;;;8.50;100.00
75740;BME280;64357;51.344;6.550;2023-11-21T02:44:11;100679.13;;;8.56;100.00
75740;BME280;64357;51.344;6.550;2023-11-21T02:46:37;100678.19;;;8.55;100.00
75740;BME280;64357;51.344;6.550;2023-11-21T02:49:03;100679.03;;;8.47;100.00
75740;BME280;64357;51.344;6.550;2023-11-21T02:51:32;100683.72;;;8.51;100.00
75740;BME280;64357;51.344;6.550;2023-11-21T02:53:58;100681.59;;;8.47;100.00
75740;BME280;64357;51.344;6.550;2023-11-21T02:56:26;100663.63;;;8.46;100.00
75740;BME280;64357;51.344;6.550;2023-11-21T02:58:59;100675.00;;;8.49;100.00
75740;BME280;64357;51.344;6.550;2023-11-21T03:01:25;100685.75;;;8.63;100.00
75740;BME280;64357;51.344;6.550;2023-11-21T03:03:50;100673.72;;;8.62;100.00
75740;BME280;64357;51.344;6.550;2023-11-21T03:06:21;100666.19;;;8.54;100.00
75740;BME280;64357;51.344;6.550;2023-11-21T03:08:49;100680.94;;;8.66;100.00
75740;BME280;64357;51.344;6.550;2023-11-21T03:11:17;100685.41;;;8.60;100.00
75740;BME280;64357;51.344;6.550;2023-11-21T03:13:44;100689.94;;;8.62;100.00
75740;BME280;64357;51.344;6.550;2023-11-21T03:16:10;100691.00;;;8.64;100.00
75740;BME280;64357;51.344;6.550;2023-11-21T03:18:40;100692.47;;;8.62;100.00
75740;BME280;64357;51.344;6.550;2023-11-21T03:21:06;100697.50;;;8.78;100.00
75740;BME280;64357;51.344;6.550;2023-11-21T03:23:35;100701.41;;;8.74;100.00
75740;BME280;64357;51.344;6.550;2023-11-21T03:26:00;100696.22;;;8.66;100.00
75740;BME280;64357;51.344;6.550;2023-11-21T03:28:26;100696.31;;;8.74;100.00
75740;BME280;64357;51.344;6.550;2023-11-21T03:30:55;100710.03;;;8.68;100.00
75740;BME280;64357;51.344;6.550;2023-11-21T03:33:23;100713.91;;;8.64;100.00
75740;BME280;64357;51.344;6.550;2023-11-21T03:35:51;100704.38;;;8.54;100.00
75740;BME280;64357;51.344;6.550;2023-11-21T03:38:18;100717.50;;;8.66;100.00
75740;BME280;64357;51.344;6.550;2023-11-21T03:40:43;100720.50;;;8.62;100.00
75740;BME280;64357;51.344;6.550;2023-11-21T03:43:08;100721.81;;;8.59;100.00
75740;BME280;64357;51.344;6.550;2023-11-21T03:45:37;100712.59;;;8.68;100.00
75740;BME280;64357;51.344;6.550;2023-11-21T03:48:02;100719.38;;;8.76;100.00
75740;BME280;64357;51.344;6.550;2023-11-21T03:50:29;100725.97;;;8.74;100.00
75740;BME280;64357;51.344;6.550;2023-11-21T03:52:54;100721.50;;;8.80;100.00
75740;BME280;64357;51.344;6.550;2023-11-21T03:55:22;100729.56;;;8.76;100.00
75740;BME280;64357;51.344;6.550;2023-11-21T03:57:51;100720.28;;;8.76;100.00
75740;BME280;64357;51.344;6.550;2023-11-21T04:00:17;100727.31;;;8.79;100.00
75740;BME280;64357;51.344;6.550;2023-11-21T04:02:42;100724.88;;;8.72;100.00
75740;BME280;64357;51.344;6.550;2023-11-21T04:05:08;100733.28;;;8.71;100.00
75740;BME280;64357;51.344;6.550;2023-11-21T04:07:34;100734.31;;;8.73;100.00
75740;BME280;64357;51.344;6.550;2023-11-21T04:10:00;100741.06;;;8.72;100.00
75740;BME280;64357;51.344;6.550;2023-11-21T04:12:28;100745.34;;;8.65;100.00
75740;BME280;64357;51.344;6.550;2023-11-21T04:14:53;100740.69;;;8.61;100.00
75740;BME280;64357;51.344;6.550;2023-11-21T04:17:19;100738.88;;;8.60;100.00
75740;BME280;64357;51.344;6.550;2023-11-21T04:19:45;100733.72;;;8.51;100.00
75740;BME280;64357;51.344;6.550;2023-11-21T04:22:13;100734.53;;;8.59;100.00
75740;BME280;64357;51.344;6.550;2023-11-21T04:24:40;100738.88;;;8.60;100.00
75740;BME280;64357;51.344;6.550;2023-11-21T04:27:06;100735.78;;;8.62;100.00
75740;BME280;64357;51.344;6.550;2023-11-21T04:29:31;100744.88;;;8.60;100.00
75740;BME280;64357;51.344;6.550;2023-11-21T04:31:56;100741.13;;;8.57;100.00
75740;BME280;64357;51.344;6.550;2023-11-21T04:34:22;100746.09;;;8.64;100.00
75740;BME280;64357;51.344;6.550;2023-11-21T04:36:47;100742.16;;;8.59;100.00
75740;BME280;64357;51.344;6.550;2023-11-21T04:39:12;100753.19;;;8.50;100.00
75740;BME280;64357;51.344;6.550;2023-11-21T04:41:38;100750.06;;;8.53;100.00
75740;BME280;64357;51.344;6.550;2023-11-21T04:44:06;100745.88;;;8.53;100.00
75740;BME280;64357;51.344;6.550;2023-11-21T04:46:31;100751.38;;;8.49;100.00
75740;BME280;64357;51.344;6.550;2023-11-21T04:48:57;100756.72;;;8.44;100.00
75740;BME280;64357;51.344;6.550;2023-11-21T04:51:25;100758.53;;;8.45;100.00
75740;BME280;64357;51.344;6.550;2023-11-21T04:53:50;100761.16;;;8.53;100.00
75740;BME280;64357;51.344;6.550;2023-11-21T04:56:16;100763.38;;;8.50;100.00
75740;BME280;64357;51.344;6.550;2023-11-21T04:58:42;100762.03;;;8.54;100.00
75740;BME280;64357;51.344;6.550;2023-11-21T05:01:07;100777.91;;;8.51;100.00
75740;BME280;64357;51.344;6.550;2023-11-21T05:03:33;100774.13;;;8.48;100.00
75740;BME280;64357;51.344;6.550;2023-11-21T05:06:03;100774.78;;;8.54;100.00
75740;BME280;64357;51.344;6.550;2023-11-21T05:08:30;100779.97;;;8.47;100.00
75740;BME280;64357;51.344;6.550;2023-11-21T05:10:55;100782.16;;;8.44;100.00
75740;BME280;64357;51.344;6.550;2023-11-21T05:13:21;100780.88;;;8.47;100.00
75740;BME280;64357;51.344;6.550;2023-11-21T05:15:47;100774.38;;;8.42;100.00
75740;BME280;64357;51.344;6.550;2023-11-21T05:18:12;100784.56;;;8.42;100.00
75740;BME280;64357;51.344;6.550;2023-11-21T05:20:40;100778.31;;;8.47;100.00
75740;BME280;64357;51.344;6.550;2023-11-21T05:23:06;100783.91;;;8.36;100.00
75740;BME280;64357;51.344;6.550;2023-11-21T05:25:33;100800.28;;;8.31;100.00
75740;BME280;64357;51.344;6.550;2023-11-21T05:27:59;100794.63;;;8.18;100.00
75740;BME280;64357;51.344;6.550;2023-11-21T05:30:26;100803.06;;;8.25;100.00
75740;BME280;64357;51.344;6.550;2023-11-21T05:32:51;100814.63;;;8.15;100.00
75740;BME280;64357;51.344;6.550;2023-11-21T05:35:19;100816.78;;;8.19;100.00
75740;BME280;64357;51.344;6.550;2023-11-21T05:37:45;100828.44;;;8.17;100.00
75740;BME280;64357;51.344;6.550;2023-11-21T05:40:11;100831.50;;;8.21;100.00
75740;BME280;64357;51.344;6.550;2023-11-21T05:42:41;100822.78;;;8.19;100.00
75740;BME280;64357;51.344;6.550;2023-11-21T05:45:11;100835.34;;;8.18;100.00
75740;BME280;64357;51.344;6.550;2023-11-21T05:47:42;100839.69;;;8.19;100.00
75740;BME280;64357;51.344;6.550;2023-11-21T05:50:09;100839.28;;;8.23;100.00
75740;BME280;64357;51.344;6.550;2023-11-21T05:52:43;100844.38;;;8.23;100.00
75740;BME280;64357;51.344;6.550;2023-11-21T05:55:09;100842.97;;;8.18;100.00
75740;BME280;64357;51.344;6.550;2023-11-21T05:57:35;100835.72;;;8.14;100.00
75740;BME280;64357;51.344;6.550;2023-11-21T06:00:03;100841.16;;;8.17;100.00
75740;BME280;64357;51.344;6.550;2023-11-21T06:02:35;100849.53;;;8.16;100.00
75740;BME280;64357;51.344;6.550;2023-11-21T06:05:01;100847.56;;;8.13;100.00
75740;BME280;64357;51.344;6.550;2023-11-21T06:07:26;100861.38;;;8.15;100.00
75740;BME280;64357;51.344;6.550;2023-11-21T06:09:51;100851.22;;;8.08;100.00
75740;BME280;64357;51.344;6.550;2023-11-21T06:12:16;100865.94;;;8.11;100.00
75740;BME280;64357;51.344;6.550;2023-11-21T06:14:42;100867.75;;;8.12;100.00
75740;BME280;64357;51.344;6.550;2023-11-21T06:17:07;100877.09;;;8.20;100.00
75740;BME280;64357;51.344;6.550;2023-11-21T06:19:33;100874.81;;;8.14;100.00
75740;BME280;64357;51.344;6.550;2023-11-21T06:21:58;100866.53;;;8.24;100.00
75740;BME280;64357;51.344;6.550;2023-11-21T06:24:23;100869.25;;;8.25;100.00
75740;BME280;64357;51.344;6.550;2023-11-21T06:26:49;100871.97;;;8.27;100.00
75740;BME280;64357;51.344;6.550;2023-11-21T06:29:14;100871.63;;;8.24;100.00
75740;BME280;64357;51.344;6.550;2023-11-21T06:31:40;100875.41;;;8.27;100.00
75740;BME280;64357;51.344;6.550;2023-11-21T06:34:08;100882.06;;;8.34;100.00
75740;BME280;64357;51.344;6.550;2023-11-21T06:36:35;100886.25;;;8.34;100.00
75740;BME280;64357;51.344;6.550;2023-11-21T06:39:02;100881.91;;;8.33;100.00
75740;BME280;64357;51.344;6.550;2023-11-21T06:41:27;100899.25;;;8.44;100.00
75740;BME280;64357;51.344;6.550;2023-11-21T06:43:53;100903.88;;;8.39;100.00
75740;BME280;64357;51.344;6.550;2023-11-21T06:46:20;100893.38;;;8.29;100.00
75740;BME280;64357;51.344;6.550;2023-11-21T06:48:46;100911.94;;;8.51;100.00
75740;BME280;64357;51.344;6.550;2023-11-21T06:51:11;100910.97;;;8.58;100.00
75740;BME280;64357;51.344;6.550;2023-11-21T06:53:37;100917.91;;;8.36;100.00
75740;BME280;64357;51.344;6.550;2023-11-21T06:56:03;100919.50;;;8.35;100.00
75740;BME280;64357;51.344;6.550;2023-11-21T06:58:28;100911.53;;;8.32;100.00
75740;BME280;64357;51.344;6.550;2023-11-21T07:00:54;100925.69;;;8.37;100.00
75740;BME280;64357;51.344;6.550;2023-11-21T07:03:19;100927.72;;;8.33;100.00
75740;BME280;64357;51.344;6.550;2023-11-21T07:05:45;100938.06;;;8.34;100.00
75740;BME280;64357;51.344;6.550;2023-11-21T07:08:10;100937.41;;;8.51;100.00
75740;BME280;64357;51.344;6.550;2023-11-21T07:10:37;100944.22;;;8.59;100.00
75740;BME280;64357;51.344;6.550;2023-11-21T07:13:03;100947.59;;;8.51;100.00
75740;BME280;64357;51.344;6.550;2023-11-21T07:15:32;100944.13;;;8.50;100.00
75740;BME280;64357;51.344;6.550;2023-11-21T07:17:57;100946.69;;;8.50;100.00
75740;BME280;64357;51.344;6.550;2023-11-21T07:20:23;100943.63;;;8.46;100.00
75740;BME280;64357;51.344;6.550;2023-11-21T07:22:48;100949.94;;;8.49;100.00
75740;BME280;64357;51.344;6.550;2023-11-21T07:25:14;100941.78;;;8.68;100.00
75740;BME280;64357;51.344;6.550;2023-11-21T07:27:41;100949.91;;;8.57;100.00
75740;BME280;64357;51.344;6.550;2023-11-21T07:30:08;100941.50;;;8.58;100.00
75740;BME280;64357;51.344;6.550;2023-11-21T07:32:37;100951.13;;;8.60;100.00
75740;BME280;64357;51.344;6.550;2023-11-21T07:35:07;100958.47;;;8.50;100.00
75740;BME280;64357;51.344;6.550;2023-11-21T07:37:33;100966.53;;;8.46;100.00
75740;BME280;64357;51.344;6.550;2023-11-21T07:40:03;100973.13;;;8.60;100.00
75740;BME280;64357;51.344;6.550;2023-11-21T07:42:29;100974.50;;;8.49;100.00
75740;BME280;64357;51.344;6.550;2023-11-21T07:44:54;100977.84;;;8.41;100.00
75740;BME280;64357;51.344;6.550;2023-11-21T07:47:19;100978.38;;;8.45;100.00
75740;BME280;64357;51.344;6.550;2023-11-21T07:49:45;100979.13;;;8.60;100.00
75740;BME280;64357;51.344;6.550;2023-11-21T07:52:14;100989.28;;;8.44;100.00
75740;BME280;64357;51.344;6.550;2023-11-21T07:54:42;100999.50;;;8.60;100.00
75740;BME280;64357;51.344;6.550;2023-11-21T07:57:08;100997.09;;;8.46;100.00
75740;BME280;64357;51.344;6.550;2023-11-21T07:59:38;100999.25;;;8.66;100.00
75740;BME280;64357;51.344;6.550;2023-11-21T08:02:03;101002.97;;;8.76;100.00
75740;BME280;64357;51.344;6.550;2023-11-21T08:04:29;101013.56;;;8.72;100.00
75740;BME280;64357;51.344;6.550;2023-11-21T08:06:55;101018.41;;;8.78;100.00
75740;BME280;64357;51.344;6.550;2023-11-21T08:09:20;101009.38;;;8.73;100.00
75740;BME280;64357;51.344;6.550;2023-11-21T08:11:49;101015.38;;;8.73;100.00
75740;BME280;64357;51.344;6.550;2023-11-21T08:14:14;101029.50;;;8.63;100.00
75740;BME280;64357;51.344;6.550;2023-11-21T08:16:40;101036.63;;;8.58;100.00
75740;BME280;64357;51.344;6.550;2023-11-21T08:19:05;101033.34;;;8.59;100.00
75740;BME280;64357;51.344;6.550;2023-11-21T08:21:31;101029.59;;;8.48;100.00
75740;BME280;64357;51.344;6.550;2023-11-21T08:23:56;101024.28;;;8.54;100.00
75740;BME280;64357;51.344;6.550;2023-11-21T08:26:22;101034.69;;;8.48;100.00
75740;BME280;64357;51.344;6.550;2023-11-21T08:28:48;101038.94;;;8.64;100.00
75740;BME280;64357;51.344;6.550;2023-11-21T08:31:22;101033.03;;;8.72;100.00
75740;BME280;64357;51.344;6.550;2023-11-21T08:33:48;101036.72;;;8.67;100.00
75740;BME280;64357;51.344;6.550;2023-11-21T08:36:13;101042.72;;;8.67;100.00
75740;BME280;64357;51.344;6.550;2023-11-21T08:38:38;101039.78;;;8.71;100.00
75740;BME280;64357;51.344;6.550;2023-11-21T08:41:07;101054.91;;;8.70;100.00
75740;BME280;64357;51.344;6.550;2023-11-21T08:43:37;101051.50;;;8.62;100.00
75740;BME280;64357;51.344;6.550;2023-11-21T08:46:07;101049.50;;;8.60;100.00
75740;BME280;64357;51.344;6.550;2023-11-21T08:48:35;101051.31;;;8.61;100.00
75740;BME280;64357;51.344;6.550;2023-11-21T08:51:01;101058.19;;;8.69;100.00
75740;BME280;64357;51.344;6.550;2023-11-21T08:53:26;101062.16;;;8.74;100.00
75740;BME280;64357;51.344;6.550;2023-11-21T08:55:51;101062.84;;;8.73;100.00
75740;BME280;64357;51.344;6.550;2023-11-21T08:58:17;101069.56;;;8.79;100.00
75740;BME280;64357;51.344;6.550;2023-11-21T09:00:43;101078.09;;;8.80;100.00
75740;BME280;64357;51.344;6.550;2023-11-21T09:03:09;101086.97;;;8.84;100.00
75740;BME280;64357;51.344;6.550;2023-11-21T09:05:39;101084.06;;;9.03;100.00
75740;BME280;64357;51.344;6.550;2023-11-21T09:08:05;101087.56;;;8.97;100.00
75740;BME280;64357;51.344;6.550;2023-11-21T09:10:32;101092.84;;;8.98;100.00
75740;BME280;64357;51.344;6.550;2023-11-21T09:12:58;101096.84;;;8.96;100.00
75740;BME280;64357;51.344;6.550;2023-11-21T09:15:24;101096.19;;;8.90;100.00
75740;BME280;64357;51.344;6.550;2023-11-21T09:17:52;101092.66;;;8.97;100.00
75740;BME280;64357;51.344;6.550;2023-11-21T09:20:18;101101.00;;;9.19;100.00
75740;BME280;64357;51.344;6.550;2023-11-21T09:22:46;101099.13;;;9.25;100.00
75740;BME280;64357;51.344;6.550;2023-11-21T09:25:12;101105.56;;;9.21;100.00
75740;BME280;64357;51.344;6.550;2023-11-21T09:27:37;101118.06;;;9.43;100.00
75740;BME280;64357;51.344;6.550;2023-11-21T09:30:03;101119.47;;;9.48;100.00
75740;BME280;64357;51.344;6.550;2023-11-21T09:32:33;101122.81;;;9.55;100.00
75740;BME280;64357;51.344;6.550;2023-11-21T09:35:03;101116.91;;;9.64;100.00
75740;BME280;64357;51.344;6.550;2023-11-21T09:37:30;101114.03;;;9.60;100.00
75740;BME280;64357;51.344;6.550;2023-11-21T09:39:55;101127.44;;;9.51;100.00
75740;BME280;64357;51.344;6.550;2023-11-21T09:42:28;101134.28;;;9.59;100.00
75740;BME280;64357;51.344;6.550;2023-11-21T09:45:05;101137.06;;;9.53;100.00
75740;BME280;64357;51.344;6.550;2023-11-21T09:47:38;101138.69;;;9.37;100.00
75740;BME280;64357;51.344;6.550;2023-11-21T09:50:04;101131.84;;;9.29;100.00
75740;BME280;64357;51.344;6.550;2023-11-21T09:52:42;101135.72;;;9.25;100.00
75740;BME280;64357;51.344;6.550;2023-11-21T09:55:10;101136.88;;;9.36;100.00
75740;BME280;64357;51.344;6.550;2023-11-21T09:57:41;101133.28;;;9.50;100.00
75740;BME280;64357;51.344;6.550;2023-11-21T10:00:08;101137.97;;;9.70;100.00
75740;BME280;64357;51.344;6.550;2023-11-21T10:02:38;101125.13;;;9.61;100.00
75740;BME280;64357;51.344;6.550;2023-11-21T10:05:06;101132.63;;;9.59;100.00
75740;BME280;64357;51.344;6.550;2023-11-21T10:07:31;101141.03;;;9.58;100.00
75740;BME280;64357;51.344;6.550;2023-11-21T10:10:05;101145.28;;;9.67;100.00
75740;BME280;64357;51.344;6.550;2023-11-21T10:12:32;101150.97;;;9.64;100.00
75740;BME280;64357;51.344;6.550;2023-11-21T10:15:01;101146.88;;;9.57;100.00
75740;BME280;64357;51.344;6.550;2023-11-21T10:17:31;101155.03;;;9.62;100.00
75740;BME280;64357;51.344;6.550;2023-11-21T10:20:07;101160.28;;;9.79;100.00
75740;BME280;64357;51.344;6.550;2023-11-21T10:22:41;101159.19;;;9.77;100.00
75740;BME280;64357;51.344;6.550;2023-11-21T10:25:10;101160.44;;;9.81;100.00
75740;BME280;64357;51.344;6.550;2023-11-21T10:27:38;101165.31;;;9.86;100.00
75740;BME280;64357;51.344;6.550;2023-11-21T10:30:14;101163.06;;;10.05;100.00
75740;BME280;64357;51.344;6.550;2023-11-21T10:32:42;101156.47;;;10.07;100.00
75740;BME280;64357;51.344;6.550;2023-11-21T10:35:08;101155.66;;;10.00;100.00
75740;BME280;64357;51.344;6.550;2023-11-21T10:37:41;101160.50;;;10.05;100.00
75740;BME280;64357;51.344;6.550;2023-11-21T10:40:09;101162.47;;;10.39;100.00
75740;BME280;64357;51.344;6.550;2023-11-21T10:42:40;101174.44;;;10.56;100.00
75740;BME280;64357;51.344;6.550;2023-11-21T10:45:09;101174.97;;;10.70;100.00
75740;BME280;64357;51.344;6.550;2023-11-21T10:47:44;101163.88;;;10.53;100.00
75740;BME280;64357;51.344;6.550;2023-11-21T10:50:10;101163.19;;;10.23;100.00
75740;BME280;64357;51.344;6.550;2023-11-21T10:52:39;101178.19;;;10.35;100.00
75740;BME280;64357;51.344;6.550;2023-11-21T10:55:19;101179.25;;;10.37;100.00
75740;BME280;64357;51.344;6.550;2023-11-21T10:57:52;101163.91;;;10.37;100.00
75740;BME280;64357;51.344;6.550;2023-11-21T11:00:19;101177.25;;;10.51;100.00
75740;BME280;64357;51.344;6.550;2023-11-21T11:02:56;101167.59;;;10.24;100.00
75740;BME280;64357;51.344;6.550;2023-11-21T11:05:25;101182.66;;;10.29;100.00
75740;BME280;64357;51.344;6.550;2023-11-21T11:07:58;101184.56;;;10.23;100.00
75740;BME280;64357;51.344;6.550;2023-11-21T11:10:27;101184.31;;;10.29;100.00
75740;BME280;64357;51.344;6.550;2023-11-21T11:12:55;101189.66;;;10.39;100.00
75740;BME280;64357;51.344;6.550;2023-11-21T11:15:24;101186.34;;;10.40;100.00
75740;BME280;64357;51.344;6.550;2023-11-21T11:17:50;101188.72;;;10.23;100.00
75740;BME280;64357;51.344;6.550;2023-11-21T11:20:16;101194.13;;;10.33;100.00
75740;BME280;64357;51.344;6.550;2023-11-21T11:25:52;101189.44;;;10.53;100.00
75740;BME280;64357;51.344;6.550;2023-11-21T11:28:21;101195.19;;;10.59;100.00
75740;BME280;64357;51.344;6.550;2023-11-21T11:33:43;101198.22;;;10.64;100.00
75740;BME280;64357;51.344;6.550;2023-11-21T11:36:26;101197.75;;;10.59;100.00
75740;BME280;64357;51.344;6.550;2023-11-21T11:38:54;101201.84;;;10.66;100.00
75740;BME280;64357;51.344;6.550;2023-11-21T11:41:39;101201.09;;;10.67;100.00
75740;BME280;64357;51.344;6.550;2023-11-21T11:47:28;101209.72;;;10.52;100.00
75740;BME280;64357;51.344;6.550;2023-11-21T11:50:11;101203.50;;;10.65;100.00
75740;BME280;64357;51.344;6.550;2023-11-21T11:52:52;101213.78;;;10.74;100.00
75740;BME280;64357;51.344;6.550;2023-11-21T11:55:23;101209.34;;;10.64;100.00
75740;BME280;64357;51.344;6.550;2023-11-21T11:57:51;101209.47;;;10.57;100.00
75740;BME280;64357;51.344;6.550;2023-11-21T12:00:33;101217.50;;;10.69;100.00
75740;BME280;64357;51.344;6.550;2023-11-21T12:03:04;101216.97;;;10.80;100.00
75740;BME280;64357;51.344;6.550;2023-11-21T12:05:31;101222.50;;;10.76;100.00
75740;BME280;64357;51.344;6.550;2023-11-21T12:08:11;101216.22;;;10.81;100.00
75740;BME280;64357;51.344;6.550;2023-11-21T12:10:38;101216.75;;;10.70;100.00
75740;BME280;64357;51.344;6.550;2023-11-21T12:13:07;101219.66;;;10.73;100.00
75740;BME280;64357;51.344;6.550;2023-11-21T12:15:37;101225.28;;;10.86;100.00
75740;BME280;64357;51.344;6.550;2023-11-21T12:18:03;101217.34;;;10.92;100.00
75740;BME280;64357;51.344;6.550;2023-11-21T12:20:32;101222.09;;;10.80;100.00
75740;BME280;64357;51.344;6.550;2023-11-21T12:23:04;101228.41;;;10.84;100.00
75740;BME280;64357;51.344;6.550;2023-11-21T12:25:34;101230.97;;;10.84;100.00
75740;BME280;64357;51.344;6.550;2023-11-21T12:28:02;101239.44;;;10.91;100.00
75740;BME280;64357;51.344;6.550;2023-11-21T12:30:34;101241.69;;;10.73;100.00
75740;BME280;64357;51.344;6.550;2023-11-21T12:33:01;101244.25;;;10.73;100.00
75740;BME280;64357;51.344;6.550;2023-11-21T12:35:31;101245.19;;;10.73;100.00
75740;BME280;64357;51.344;6.550;2023-11-21T12:38:00;101249.72;;;10.76;100.00
75740;BME280;64357;51.344;6.550;2023-11-21T12:40:27;101248.78;;;10.91;100.00
75740;BME280;64357;51.344;6.550;2023-11-21T12:42:56;101244.81;;;10.86;100.00
75740;BME280;64357;51.344;6.550;2023-11-21T12:45:26;101246.28;;;10.84;100.00
75740;BME280;64357;51.344;6.550;2023-11-21T12:47:57;101252.94;;;10.90;100.00
75740;BME280;64357;51.344;6.550;2023-11-21T12:50:28;101259.09;;;11.08;100.00
75740;BME280;64357;51.344;6.550;2023-11-21T12:53:09;101258.72;;;10.97;100.00
75740;BME280;64357;51.344;6.550;2023-11-21T12:55:38;101257.59;;;10.86;100.00
75740;BME280;64357;51.344;6.550;2023-11-21T12:58:05;101259.19;;;10.77;100.00
75740;BME280;64357;51.344;6.550;2023-11-21T13:00:36;101260.34;;;10.96;100.00